CheckWX is a tool to help pilots better visualize weather data.  It is not intended as a substitute for an official pre-flight weather briefing.

12:06:17 UTC

KHND TAF
Henderson Executive Airport
Las Vegas, Nevada, USA
KHND 201125Z 2012/2112 21009KT P6SM SKC FM201800 VRB05KT P6SM SKC FM202100 23010KT P6SM SKC

Aug-20@
12:00 UTC

Aug-20 @ 12:00 UTC

Aug-20@
18:00 UTC

Aug-20 @ 18:00 UTC

KHND 201125Z 2012/2112 21009KT P6SM SKC
Wind
  • 210° at 9 KTS
Cloud Levels
  • Clear skies

Aug-20@
18:00 UTC

Aug-20 @ 18:00 UTC

Aug-20@
21:00 UTC

Aug-20 @ 21:00 UTC

FM201800 VRB05KT P6SM SKC

From

From Standard forecast or significant change

Wind
  • Variable at 5 KTS
Cloud Levels
  • Clear skies

Aug-20@
21:00 UTC

Aug-20 @ 21:00 UTC

Aug-21@
12:00 UTC

Aug-21 @ 12:00 UTC

FM202100 23010KT P6SM SKC

From

From Standard forecast or significant change

Wind
  • 230° at 10 KTS
Cloud Levels
  • Clear skies